sensor_id;sensor_type;location;lat;lon;timestamp;pressure;altitude;pressure_sealevel;temperature
64904;BMP280;51401;48.882;12.598;2022-08-18T00:02:11;97113.13;;;22.61
64904;BMP280;51401;48.882;12.598;2022-08-18T00:04:37;97125.16;;;22.62
64904;BMP280;51401;48.882;12.598;2022-08-18T00:07:06;97118.97;;;22.70
64904;BMP280;51401;48.882;12.598;2022-08-18T00:09:36;97118.84;;;22.85
64904;BMP280;51401;48.882;12.598;2022-08-18T00:12:06;97121.56;;;22.95
64904;BMP280;51401;48.882;12.598;2022-08-18T00:14:33;97116.84;;;23.10
64904;BMP280;51401;48.882;12.598;2022-08-18T00:16:58;97130.31;;;23.07
64904;BMP280;51401;48.882;12.598;2022-08-18T00:19:24;97141.53;;;23.32
64904;BMP280;51401;48.882;12.598;2022-08-18T00:21:50;97144.94;;;23.38
64904;BMP280;51401;48.882;12.598;2022-08-18T00:24:15;97180.22;;;23.65
64904;BMP280;51401;48.882;12.598;2022-08-18T00:26:41;97173.03;;;23.71
64904;BMP280;51401;48.882;12.598;2022-08-18T00:29:06;97176.75;;;23.49
64904;BMP280;51401;48.882;12.598;2022-08-18T00:31:32;97168.53;;;23.41
64904;BMP280;51401;48.882;12.598;2022-08-18T00:33:58;97170.53;;;23.57
64904;BMP280;51401;48.882;12.598;2022-08-18T00:36:25;97164.06;;;23.58
64904;BMP280;51401;48.882;12.598;2022-08-18T00:38:50;97160.69;;;23.58
64904;BMP280;51401;48.882;12.598;2022-08-18T00:41:16;97160.38;;;23.50
64904;BMP280;51401;48.882;12.598;2022-08-18T00:43:45;97166.63;;;23.42
64904;BMP280;51401;48.882;12.598;2022-08-18T00:46:20;97186.28;;;23.30
64904;BMP280;51401;48.882;12.598;2022-08-18T00:48:46;97186.69;;;23.23
64904;BMP280;51401;48.882;12.598;2022-08-18T00:51:25;97182.09;;;23.18
64904;BMP280;51401;48.882;12.598;2022-08-18T00:56:25;97199.03;;;23.01
64904;BMP280;51401;48.882;12.598;2022-08-18T00:58:56;97217.03;;;22.97
64904;BMP280;51401;48.882;12.598;2022-08-18T01:01:25;97209.56;;;22.96
64904;BMP280;51401;48.882;12.598;2022-08-18T01:03:57;97193.22;;;22.97
64904;BMP280;51401;48.882;12.598;2022-08-18T01:06:33;97211.25;;;22.93
64904;BMP280;51401;48.882;12.598;2022-08-18T01:09:01;97210.41;;;22.82
64904;BMP280;51401;48.882;12.598;2022-08-18T01:11:27;97225.47;;;22.76
64904;BMP280;51401;48.882;12.598;2022-08-18T01:13:52;97233.59;;;22.73
64904;BMP280;51401;48.882;12.598;2022-08-18T01:16:18;97237.28;;;22.75
64904;BMP280;51401;48.882;12.598;2022-08-18T01:19:02;97247.00;;;22.64
64904;BMP280;51401;48.882;12.598;2022-08-18T01:21:51;97250.09;;;22.62
64904;BMP280;51401;48.882;12.598;2022-08-18T01:24:24;97255.34;;;22.57
64904;BMP280;51401;48.882;12.598;2022-08-18T01:27:11;97242.84;;;22.58
64904;BMP280;51401;48.882;12.598;2022-08-18T01:29:42;97247.06;;;22.50
64904;BMP280;51401;48.882;12.598;2022-08-18T01:32:07;97251.44;;;22.53
64904;BMP280;51401;48.882;12.598;2022-08-18T01:34:32;97257.78;;;22.41
64904;BMP280;51401;48.882;12.598;2022-08-18T01:36:58;97259.38;;;22.33
64904;BMP280;51401;48.882;12.598;2022-08-18T01:39:23;97242.28;;;22.29
64904;BMP280;51401;48.882;12.598;2022-08-18T01:41:49;97249.66;;;22.05
64904;BMP280;51401;48.882;12.598;2022-08-18T01:44:15;97248.44;;;21.86
64904;BMP280;51401;48.882;12.598;2022-08-18T01:46:40;97242.66;;;21.68
64904;BMP280;51401;48.882;12.598;2022-08-18T01:49:08;97244.84;;;21.56
64904;BMP280;51401;48.882;12.598;2022-08-18T01:51:34;97239.25;;;21.48
64904;BMP280;51401;48.882;12.598;2022-08-18T01:54:02;97241.81;;;21.14
64904;BMP280;51401;48.882;12.598;2022-08-18T01:56:28;97246.53;;;20.96
64904;BMP280;51401;48.882;12.598;2022-08-18T01:58:54;97245.44;;;20.88
64904;BMP280;51401;48.882;12.598;2022-08-18T02:01:21;97250.97;;;20.76
64904;BMP280;51401;48.882;12.598;2022-08-18T02:03:50;97233.41;;;20.73
64904;BMP280;51401;48.882;12.598;2022-08-18T02:06:17;97230.09;;;20.50
64904;BMP280;51401;48.882;12.598;2022-08-18T02:08:44;97232.56;;;20.53
64904;BMP280;51401;48.882;12.598;2022-08-18T02:11:09;97225.38;;;20.53
64904;BMP280;51401;48.882;12.598;2022-08-18T02:13:35;97239.72;;;20.52
64904;BMP280;51401;48.882;12.598;2022-08-18T02:16:01;97235.06;;;20.48
64904;BMP280;51401;48.882;12.598;2022-08-18T02:18:30;97239.63;;;20.47
64904;BMP280;51401;48.882;12.598;2022-08-18T02:21:09;97235.72;;;20.43
64904;BMP280;51401;48.882;12.598;2022-08-18T02:23:35;97240.50;;;20.44
64904;BMP280;51401;48.882;12.598;2022-08-18T02:26:06;97242.38;;;20.52
64904;BMP280;51401;48.882;12.598;2022-08-18T02:28:32;97239.72;;;20.52
64904;BMP280;51401;48.882;12.598;2022-08-18T02:31:04;97233.91;;;20.49
64904;BMP280;51401;48.882;12.598;2022-08-18T02:33:29;97241.19;;;20.53
64904;BMP280;51401;48.882;12.598;2022-08-18T02:35:55;97251.00;;;20.53
64904;BMP280;51401;48.882;12.598;2022-08-18T02:38:20;97257.53;;;20.57
64904;BMP280;51401;48.882;12.598;2022-08-18T02:40:45;97256.38;;;20.58
64904;BMP280;51401;48.882;12.598;2022-08-18T02:43:10;97264.59;;;20.51
64904;BMP280;51401;48.882;12.598;2022-08-18T02:45:36;97262.13;;;20.48
64904;BMP280;51401;48.882;12.598;2022-08-18T02:48:02;97258.13;;;20.38
64904;BMP280;51401;48.882;12.598;2022-08-18T02:50:28;97256.84;;;20.34
64904;BMP280;51401;48.882;12.598;2022-08-18T02:52:53;97255.13;;;20.31
64904;BMP280;51401;48.882;12.598;2022-08-18T02:55:18;97252.19;;;20.29
64904;BMP280;51401;48.882;12.598;2022-08-18T02:57:46;97253.50;;;20.24
64904;BMP280;51401;48.882;12.598;2022-08-18T03:00:14;97246.00;;;20.32
64904;BMP280;51401;48.882;12.598;2022-08-18T03:02:50;97248.06;;;20.28
64904;BMP280;51401;48.882;12.598;2022-08-18T03:05:16;97249.84;;;20.31
64904;BMP280;51401;48.882;12.598;2022-08-18T03:07:41;97237.84;;;20.30
64904;BMP280;51401;48.882;12.598;2022-08-18T03:10:08;97237.44;;;20.23
64904;BMP280;51401;48.882;12.598;2022-08-18T03:12:34;97231.53;;;20.04
64904;BMP280;51401;48.882;12.598;2022-08-18T03:15:00;97228.75;;;20.08
64904;BMP280;51401;48.882;12.598;2022-08-18T03:17:26;97231.50;;;20.13
64904;BMP280;51401;48.882;12.598;2022-08-18T03:19:52;97245.59;;;20.01
64904;BMP280;51401;48.882;12.598;2022-08-18T03:22:17;97261.44;;;19.93
64904;BMP280;51401;48.882;12.598;2022-08-18T03:24:43;97258.53;;;19.91
64904;BMP280;51401;48.882;12.598;2022-08-18T03:27:08;97250.47;;;19.94
64904;BMP280;51401;48.882;12.598;2022-08-18T03:29:34;97248.56;;;19.95
64904;BMP280;51401;48.882;12.598;2022-08-18T03:32:01;97251.94;;;19.95
64904;BMP280;51401;48.882;12.598;2022-08-18T03:34:27;97254.56;;;19.95
64904;BMP280;51401;48.882;12.598;2022-08-18T03:36:53;97257.81;;;19.90
64904;BMP280;51401;48.882;12.598;2022-08-18T03:39:19;97262.00;;;19.97
64904;BMP280;51401;48.882;12.598;2022-08-18T03:41:47;97258.31;;;20.03
64904;BMP280;51401;48.882;12.598;2022-08-18T03:44:14;97250.91;;;19.93
64904;BMP280;51401;48.882;12.598;2022-08-18T03:46:41;97237.88;;;19.98
64904;BMP280;51401;48.882;12.598;2022-08-18T03:49:07;97241.50;;;20.00
64904;BMP280;51401;48.882;12.598;2022-08-18T03:51:33;97232.00;;;20.03
64904;BMP280;51401;48.882;12.598;2022-08-18T03:54:00;97239.75;;;19.98
64904;BMP280;51401;48.882;12.598;2022-08-18T03:56:36;97251.78;;;19.98
64904;BMP280;51401;48.882;12.598;2022-08-18T03:59:06;97251.63;;;19.93
64904;BMP280;51401;48.882;12.598;2022-08-18T04:01:33;97259.69;;;19.90
64904;BMP280;51401;48.882;12.598;2022-08-18T04:04:02;97252.97;;;19.89
64904;BMP280;51401;48.882;12.598;2022-08-18T04:06:36;97246.28;;;19.79
64904;BMP280;51401;48.882;12.598;2022-08-18T04:09:05;97253.19;;;19.76
64904;BMP280;51401;48.882;12.598;2022-08-18T04:11:32;97261.50;;;19.75
64904;BMP280;51401;48.882;12.598;2022-08-18T04:13:58;97260.94;;;19.71
64904;BMP280;51401;48.882;12.598;2022-08-18T04:16:24;97266.19;;;19.71
64904;BMP280;51401;48.882;12.598;2022-08-18T04:18:50;97267.53;;;19.67
64904;BMP280;51401;48.882;12.598;2022-08-18T04:21:16;97263.28;;;19.69
64904;BMP280;51401;48.882;12.598;2022-08-18T04:23:41;97268.09;;;19.71
64904;BMP280;51401;48.882;12.598;2022-08-18T04:26:08;97264.63;;;19.65
64904;BMP280;51401;48.882;12.598;2022-08-18T04:28:35;97260.53;;;19.64
64904;BMP280;51401;48.882;12.598;2022-08-18T04:31:06;97255.41;;;19.60
64904;BMP280;51401;48.882;12.598;2022-08-18T04:33:31;97260.69;;;19.60
64904;BMP280;51401;48.882;12.598;2022-08-18T04:35:57;97265.94;;;19.60
64904;BMP280;51401;48.882;12.598;2022-08-18T04:38:22;97264.31;;;19.63
64904;BMP280;51401;48.882;12.598;2022-08-18T04:40:48;97262.44;;;19.63
64904;BMP280;51401;48.882;12.598;2022-08-18T04:43:14;97267.69;;;19.63
64904;BMP280;51401;48.882;12.598;2022-08-18T04:45:46;97265.94;;;19.69
64904;BMP280;51401;48.882;12.598;2022-08-18T04:48:11;97264.13;;;19.75
64904;BMP280;51401;48.882;12.598;2022-08-18T04:50:37;97262.06;;;19.79
64904;BMP280;51401;48.882;12.598;2022-08-18T04:53:03;97253.88;;;19.86
64904;BMP280;51401;48.882;12.598;2022-08-18T04:55:49;97258.38;;;19.94
64904;BMP280;51401;48.882;12.598;2022-08-18T04:58:21;97262.22;;;20.07
64904;BMP280;51401;48.882;12.598;2022-08-18T05:00:56;97257.06;;;20.22
64904;BMP280;51401;48.882;12.598;2022-08-18T05:03:22;97253.75;;;20.58
64904;BMP280;51401;48.882;12.598;2022-08-18T05:05:55;97251.81;;;20.82
64904;BMP280;51401;48.882;12.598;2022-08-18T05:08:23;97248.34;;;21.04
64904;BMP280;51401;48.882;12.598;2022-08-18T05:10:55;97252.88;;;21.18
64904;BMP280;51401;48.882;12.598;2022-08-18T05:13:24;97252.06;;;21.27
64904;BMP280;51401;48.882;12.598;2022-08-18T05:15:54;97272.81;;;21.62
64904;BMP280;51401;48.882;12.598;2022-08-18T05:18:24;97276.53;;;21.70
64904;BMP280;51401;48.882;12.598;2022-08-18T05:20:51;97255.81;;;21.83
64904;BMP280;51401;48.882;12.598;2022-08-18T05:23:18;97250.31;;;22.20
64904;BMP280;51401;48.882;12.598;2022-08-18T05:25:43;97258.94;;;21.67
64904;BMP280;51401;48.882;12.598;2022-08-18T05:28:08;97265.94;;;21.84
64904;BMP280;51401;48.882;12.598;2022-08-18T05:30:34;97268.66;;;21.89
64904;BMP280;51401;48.882;12.598;2022-08-18T05:33:01;97264.56;;;21.88
64904;BMP280;51401;48.882;12.598;2022-08-18T05:35:36;97286.13;;;21.87
64904;BMP280;51401;48.882;12.598;2022-08-18T05:38:33;97300.88;;;21.79
64904;BMP280;51401;48.882;12.598;2022-08-18T05:43:32;97308.72;;;21.88
64904;BMP280;51401;48.882;12.598;2022-08-18T05:46:00;97291.56;;;21.98
64904;BMP280;51401;48.882;12.598;2022-08-18T05:48:26;97291.50;;;21.92
64904;BMP280;51401;48.882;12.598;2022-08-18T05:50:53;97300.47;;;22.00
64904;BMP280;51401;48.882;12.598;2022-08-18T05:53:20;97299.25;;;21.96
64904;BMP280;51401;48.882;12.598;2022-08-18T05:56:07;97309.63;;;21.99
64904;BMP280;51401;48.882;12.598;2022-08-18T05:58:54;97303.56;;;21.99
64904;BMP280;51401;48.882;12.598;2022-08-18T06:01:25;97297.94;;;22.06
64904;BMP280;51401;48.882;12.598;2022-08-18T06:03:53;97302.78;;;22.27
64904;BMP280;51401;48.882;12.598;2022-08-18T06:06:22;97299.47;;;22.32
64904;BMP280;51401;48.882;12.598;2022-08-18T06:08:59;97296.53;;;22.30
64904;BMP280;51401;48.882;12.598;2022-08-18T06:11:27;97314.53;;;22.45
64904;BMP280;51401;48.882;12.598;2022-08-18T06:13:52;97310.91;;;22.43
64904;BMP280;51401;48.882;12.598;2022-08-18T06:19:02;97315.41;;;22.57
64904;BMP280;51401;48.882;12.598;2022-08-18T06:21:49;97306.78;;;22.81
64904;BMP280;51401;48.882;12.598;2022-08-18T06:24:43;97325.38;;;22.67
64904;BMP280;51401;48.882;12.598;2022-08-18T06:38:17;97349.88;;;23.98
64904;BMP280;51401;48.882;12.598;2022-08-18T06:41:43;97343.19;;;24.08
64904;BMP280;51401;48.882;12.598;2022-08-18T06:44:12;97338.34;;;24.01
64904;BMP280;51401;48.882;12.598;2022-08-18T06:46:45;97333.41;;;24.24
64904;BMP280;51401;48.882;12.598;2022-08-18T06:49:30;97341.31;;;24.14
64904;BMP280;51401;48.882;12.598;2022-08-18T06:54:44;97347.94;;;25.29
64904;BMP280;51401;48.882;12.598;2022-08-18T06:57:25;97341.84;;;24.96
64904;BMP280;51401;48.882;12.598;2022-08-18T07:00:05;97339.00;;;25.11
64904;BMP280;51401;48.882;12.598;2022-08-18T07:02:39;97331.94;;;24.86
64904;BMP280;51401;48.882;12.598;2022-08-18T07:05:07;97322.41;;;24.37
64904;BMP280;51401;48.882;12.598;2022-08-18T07:07:37;97319.09;;;24.00
64904;BMP280;51401;48.882;12.598;2022-08-18T07:10:29;97332.81;;;23.68
64904;BMP280;51401;48.882;12.598;2022-08-18T07:13:05;97343.59;;;23.60
64904;BMP280;51401;48.882;12.598;2022-08-18T07:15:30;97347.47;;;23.94
64904;BMP280;51401;48.882;12.598;2022-08-18T07:18:03;97338.56;;;23.62
64904;BMP280;51401;48.882;12.598;2022-08-18T07:20:29;97347.84;;;23.82
64904;BMP280;51401;48.882;12.598;2022-08-18T07:23:04;97337.59;;;24.41
64904;BMP280;51401;48.882;12.598;2022-08-18T07:25:41;97346.81;;;24.57
64904;BMP280;51401;48.882;12.598;2022-08-18T07:28:27;97350.75;;;24.88
64904;BMP280;51401;48.882;12.598;2022-08-18T07:31:07;97346.38;;;24.64
64904;BMP280;51401;48.882;12.598;2022-08-18T07:33:35;97328.53;;;24.80
64904;BMP280;51401;48.882;12.598;2022-08-18T07:36:03;97330.06;;;25.46
64904;BMP280;51401;48.882;12.598;2022-08-18T07:42:10;97322.03;;;25.84
64904;BMP280;51401;48.882;12.598;2022-08-18T07:44:15;97304.66;;;25.83
64904;BMP280;51401;48.882;12.598;2022-08-18T07:49:21;97293.75;;;26.02
64904;BMP280;51401;48.882;12.598;2022-08-18T07:51:56;97300.50;;;26.59
64904;BMP280;51401;48.882;12.598;2022-08-18T07:57:14;97301.63;;;26.24
64904;BMP280;51401;48.882;12.598;2022-08-18T08:07:13;97266.75;;;27.07
64904;BMP280;51401;48.882;12.598;2022-08-18T08:10:41;97250.97;;;27.37
64904;BMP280;51401;48.882;12.598;2022-08-18T08:15:26;97250.13;;;27.48
64904;BMP280;51401;48.882;12.598;2022-08-18T08:18:11;97238.03;;;27.47
64904;BMP280;51401;48.882;12.598;2022-08-18T08:20:54;97229.81;;;27.86
64904;BMP280;51401;48.882;12.598;2022-08-18T08:23:53;97234.63;;;26.99
64904;BMP280;51401;48.882;12.598;2022-08-18T08:26:46;97243.03;;;28.15
64904;BMP280;51401;48.882;12.598;2022-08-18T08:32:12;97253.22;;;29.22
64904;BMP280;51401;48.882;12.598;2022-08-18T08:34:44;97255.63;;;29.07
64904;BMP280;51401;48.882;12.598;2022-08-18T08:37:19;97254.53;;;29.54
64904;BMP280;51401;48.882;12.598;2022-08-18T08:39:52;97247.84;;;29.60
64904;BMP280;51401;48.882;12.598;2022-08-18T08:44:58;97248.31;;;28.52
64904;BMP280;51401;48.882;12.598;2022-08-18T08:47:34;97251.84;;;27.69
64904;BMP280;51401;48.882;12.598;2022-08-18T08:50:08;97254.94;;;27.26
64904;BMP280;51401;48.882;12.598;2022-08-18T08:52:45;97254.69;;;27.29
64904;BMP280;51401;48.882;12.598;2022-08-18T08:55:20;97262.47;;;28.10
64904;BMP280;51401;48.882;12.598;2022-08-18T08:57:54;97263.00;;;28.27
64904;BMP280;51401;48.882;12.598;2022-08-18T09:00:21;97265.38;;;28.12
64904;BMP280;51401;48.882;12.598;2022-08-18T09:05:26;97256.19;;;29.44
64904;BMP280;51401;48.882;12.598;2022-08-18T09:13:46;97231.81;;;29.09
64904;BMP280;51401;48.882;12.598;2022-08-18T09:16:23;97231.81;;;29.35
64904;BMP280;51401;48.882;12.598;2022-08-18T09:18:59;97218.16;;;29.00
64904;BMP280;51401;48.882;12.598;2022-08-18T09:21:40;97207.69;;;29.02
64904;BMP280;51401;48.882;12.598;2022-08-18T09:24:21;97203.66;;;30.25
64904;BMP280;51401;48.882;12.598;2022-08-18T09:29:54;97217.66;;;31.90
64904;BMP280;51401;48.882;12.598;2022-08-18T09:35:13;97203.56;;;31.89
64904;BMP280;51401;48.882;12.598;2022-08-18T09:37:52;97198.16;;;30.50
64904;BMP280;51401;48.882;12.598;2022-08-18T09:40:50;97194.31;;;29.99
64904;BMP280;51401;48.882;12.598;2022-08-18T09:43:39;97206.09;;;30.63
64904;BMP280;51401;48.882;12.598;2022-08-18T09:51:54;97209.28;;;32.01
64904;BMP280;51401;48.882;12.598;2022-08-18T09:54:26;97202.47;;;32.00
64904;BMP280;51401;48.882;12.598;2022-08-18T09:57:17;97202.44;;;31.78
64904;BMP280;51401;48.882;12.598;2022-08-18T10:10:51;97219.19;;;31.56
64904;BMP280;51401;48.882;12.598;2022-08-18T10:13:26;97223.09;;;32.12
64904;BMP280;51401;48.882;12.598;2022-08-18T10:19:06;97235.63;;;32.83
64904;BMP280;51401;48.882;12.598;2022-08-18T10:24:21;97225.75;;;33.00
64904;BMP280;51401;48.882;12.598;2022-08-18T10:34:50;97219.31;;;32.88
64904;BMP280;51401;48.882;12.598;2022-08-18T10:37:23;97224.06;;;33.19
64904;BMP280;51401;48.882;12.598;2022-08-18T10:39:59;97230.75;;;33.57
64904;BMP280;51401;48.882;12.598;2022-08-18T10:42:33;97229.25;;;33.25
64904;BMP280;51401;48.882;12.598;2022-08-18T10:47:32;97225.03;;;32.85
64904;BMP280;51401;48.882;12.598;2022-08-18T10:49:59;97222.91;;;33.75
64904;BMP280;51401;48.882;12.598;2022-08-18T10:55:20;97209.31;;;34.21
64904;BMP280;51401;48.882;12.598;2022-08-18T10:58:27;97218.69;;;34.94
64904;BMP280;51401;48.882;12.598;2022-08-18T11:04:04;97229.78;;;33.69
64904;BMP280;51401;48.882;12.598;2022-08-18T11:06:42;97232.13;;;34.44
64904;BMP280;51401;48.882;12.598;2022-08-18T11:09:09;97219.56;;;34.80
64904;BMP280;51401;48.882;12.598;2022-08-18T11:11:40;97220.34;;;34.73
64904;BMP280;51401;48.882;12.598;2022-08-18T11:17:29;97203.25;;;33.90
64904;BMP280;51401;48.882;12.598;2022-08-18T11:19:58;97205.31;;;34.06
64904;BMP280;51401;48.882;12.598;2022-08-18T11:22:26;97200.44;;;34.12
64904;BMP280;51401;48.882;12.598;2022-08-18T11:24:51;97207.53;;;35.24
64904;BMP280;51401;48.882;12.598;2022-08-18T11:27:23;97206.94;;;35.16
64904;BMP280;51401;48.882;12.598;2022-08-18T11:29:49;97203.22;;;35.11
64904;BMP280;51401;48.882;12.598;2022-08-18T11:32:34;97196.63;;;33.91
64904;BMP280;51401;48.882;12.598;2022-08-18T11:35:14;97195.44;;;33.46
64904;BMP280;51401;48.882;12.598;2022-08-18T11:43:16;97183.03;;;34.29
64904;BMP280;51401;48.882;12.598;2022-08-18T11:56:21;97165.66;;;34.06
64904;BMP280;51401;48.882;12.598;2022-08-18T11:58:57;97186.03;;;34.16
64904;BMP280;51401;48.882;12.598;2022-08-18T12:03:57;97198.38;;;33.33
64904;BMP280;51401;48.882;12.598;2022-08-18T12:06:29;97195.94;;;33.90
64904;BMP280;51401;48.882;12.598;2022-08-18T12:09:03;97193.41;;;33.22
64904;BMP280;51401;48.882;12.598;2022-08-18T12:11:31;97176.78;;;34.03
64904;BMP280;51401;48.882;12.598;2022-08-18T12:14:03;97174.66;;;34.25
64904;BMP280;51401;48.882;12.598;2022-08-18T12:16:38;97163.66;;;34.31
64904;BMP280;51401;48.882;12.598;2022-08-18T12:19:05;97144.38;;;33.93
64904;BMP280;51401;48.882;12.598;2022-08-18T12:21:31;97138.84;;;34.16
64904;BMP280;51401;48.882;12.598;2022-08-18T12:23:56;97118.19;;;33.39
64904;BMP280;51401;48.882;12.598;2022-08-18T12:26:22;97107.69;;;33.81
64904;BMP280;51401;48.882;12.598;2022-08-18T12:28:47;97100.16;;;34.04
64904;BMP280;51401;48.882;12.598;2022-08-18T12:31:12;97096.44;;;33.75
64904;BMP280;51401;48.882;12.598;2022-08-18T12:33:37;97100.78;;;33.47
64904;BMP280;51401;48.882;12.598;2022-08-18T12:36:04;97112.16;;;32.92
64904;BMP280;51401;48.882;12.598;2022-08-18T12:38:31;97110.09;;;33.46
64904;BMP280;51401;48.882;12.598;2022-08-18T12:40:56;97096.38;;;34.07
64904;BMP280;51401;48.882;12.598;2022-08-18T12:43:22;97090.31;;;34.23
64904;BMP280;51401;48.882;12.598;2022-08-18T12:45:48;97089.66;;;34.15
64904;BMP280;51401;48.882;12.598;2022-08-18T12:48:13;97083.63;;;34.40
64904;BMP280;51401;48.882;12.598;2022-08-18T12:50:39;97071.50;;;34.16
64904;BMP280;51401;48.882;12.598;2022-08-18T12:53:05;97072.22;;;34.49
64904;BMP280;51401;48.882;12.598;2022-08-18T12:55:35;97079.19;;;34.95
64904;BMP280;51401;48.882;12.598;2022-08-18T12:58:01;97059.56;;;35.91
64904;BMP280;51401;48.882;12.598;2022-08-18T13:00:28;97063.25;;;36.32
64904;BMP280;51401;48.882;12.598;2022-08-18T13:02:53;97064.09;;;36.35
64904;BMP280;51401;48.882;12.598;2022-08-18T13:05:19;97060.53;;;35.86
64904;BMP280;51401;48.882;12.598;2022-08-18T13:07:45;97064.75;;;35.00
64904;BMP280;51401;48.882;12.598;2022-08-18T13:10:10;97064.34;;;35.92
64904;BMP280;51401;48.882;12.598;2022-08-18T13:12:35;97056.81;;;36.65
64904;BMP280;51401;48.882;12.598;2022-08-18T13:15:01;97062.91;;;35.63
64904;BMP280;51401;48.882;12.598;2022-08-18T13:17:27;97065.81;;;35.49
64904;BMP280;51401;48.882;12.598;2022-08-18T13:19:52;97059.97;;;35.96
64904;BMP280;51401;48.882;12.598;2022-08-18T13:22:17;97059.56;;;36.28
64904;BMP280;51401;48.882;12.598;2022-08-18T13:24:44;97053.34;;;35.62
64904;BMP280;51401;48.882;12.598;2022-08-18T13:27:09;97046.28;;;35.57
64904;BMP280;51401;48.882;12.598;2022-08-18T13:29:35;97043.94;;;35.45
64904;BMP280;51401;48.882;12.598;2022-08-18T13:32:01;97058.63;;;34.73
64904;BMP280;51401;48.882;12.598;2022-08-18T13:34:32;97062.47;;;34.04
64904;BMP280;51401;48.882;12.598;2022-08-18T13:36:57;97067.50;;;33.04
64904;BMP280;51401;48.882;12.598;2022-08-18T13:39:23;97070.34;;;32.60
64904;BMP280;51401;48.882;12.598;2022-08-18T13:41:51;97064.88;;;32.29
64904;BMP280;51401;48.882;12.598;2022-08-18T13:44:17;97055.41;;;32.20
64904;BMP280;51401;48.882;12.598;2022-08-18T13:46:44;97048.09;;;32.06
64904;BMP280;51401;48.882;12.598;2022-08-18T13:49:22;97046.44;;;32.18
64904;BMP280;51401;48.882;12.598;2022-08-18T13:51:49;97049.00;;;32.01
64904;BMP280;51401;48.882;12.598;2022-08-18T13:54:28;97045.50;;;32.37
64904;BMP280;51401;48.882;12.598;2022-08-18T13:56:54;97040.13;;;32.59
64904;BMP280;51401;48.882;12.598;2022-08-18T13:59:21;97035.97;;;32.66
64904;BMP280;51401;48.882;12.598;2022-08-18T14:01:47;97036.66;;;32.66
64904;BMP280;51401;48.882;12.598;2022-08-18T14:04:14;97036.81;;;32.15
64904;BMP280;51401;48.882;12.598;2022-08-18T14:06:40;97025.91;;;31.98
64904;BMP280;51401;48.882;12.598;2022-08-18T14:09:05;97021.63;;;31.51
64904;BMP280;51401;48.882;12.598;2022-08-18T14:11:32;97019.97;;;31.26
64904;BMP280;51401;48.882;12.598;2022-08-18T14:13:58;97032.06;;;31.05
64904;BMP280;51401;48.882;12.598;2022-08-18T14:16:25;97033.09;;;30.88
64904;BMP280;51401;48.882;12.598;2022-08-18T14:18:51;97025.06;;;30.88
64904;BMP280;51401;48.882;12.598;2022-08-18T14:21:46;97013.09;;;30.89
64904;BMP280;51401;48.882;12.598;2022-08-18T14:24:32;97005.06;;;30.54
64904;BMP280;51401;48.882;12.598;2022-08-18T14:27:17;96988.63;;;30.43
64904;BMP280;51401;48.882;12.598;2022-08-18T14:29:43;97000.63;;;30.22
64904;BMP280;51401;48.882;12.598;2022-08-18T14:32:11;96992.09;;;30.03
64904;BMP280;51401;48.882;12.598;2022-08-18T14:34:36;96993.28;;;29.95
64904;BMP280;51401;48.882;12.598;2022-08-18T14:37:02;97004.16;;;29.69
64904;BMP280;51401;48.882;12.598;2022-08-18T14:39:27;96996.00;;;29.54
64904;BMP280;51401;48.882;12.598;2022-08-18T14:41:53;96992.22;;;29.50
64904;BMP280;51401;48.882;12.598;2022-08-18T14:44:18;96988.06;;;29.42
64904;BMP280;51401;48.882;12.598;2022-08-18T14:46:43;96980.13;;;29.56
64904;BMP280;51401;48.882;12.598;2022-08-18T14:49:12;96973.75;;;29.59
64904;BMP280;51401;48.882;12.598;2022-08-18T14:51:37;96963.91;;;29.54
64904;BMP280;51401;48.882;12.598;2022-08-18T14:54:08;96957.59;;;29.45
64904;BMP280;51401;48.882;12.598;2022-08-18T14:56:33;96932.72;;;29.50
64904;BMP280;51401;48.882;12.598;2022-08-18T14:58:59;96939.09;;;29.47
64904;BMP280;51401;48.882;12.598;2022-08-18T15:01:24;96923.28;;;29.56
64904;BMP280;51401;48.882;12.598;2022-08-18T15:03:49;96913.72;;;29.60
64904;BMP280;51401;48.882;12.598;2022-08-18T15:06:15;96918.63;;;29.69
64904;BMP280;51401;48.882;12.598;2022-08-18T15:08:40;96915.44;;;29.78
64904;BMP280;51401;48.882;12.598;2022-08-18T15:11:06;96900.13;;;29.78
64904;BMP280;51401;48.882;12.598;2022-08-18T15:13:31;96896.03;;;29.77
64904;BMP280;51401;48.882;12.598;2022-08-18T15:15:59;96884.06;;;29.71
64904;BMP280;51401;48.882;12.598;2022-08-18T15:18:24;96873.97;;;29.84
64904;BMP280;51401;48.882;12.598;2022-08-18T15:20:50;96879.91;;;29.90
64904;BMP280;51401;48.882;12.598;2022-08-18T15:23:34;96874.94;;;30.01
64904;BMP280;51401;48.882;12.598;2022-08-18T15:26:23;96877.41;;;29.92
64904;BMP280;51401;48.882;12.598;2022-08-18T15:28:49;96886.59;;;29.84
64904;BMP280;51401;48.882;12.598;2022-08-18T15:31:14;96884.09;;;29.78
64904;BMP280;51401;48.882;12.598;2022-08-18T15:33:39;96885.66;;;29.74
64904;BMP280;51401;48.882;12.598;2022-08-18T15:36:06;96885.44;;;29.65
64904;BMP280;51401;48.882;12.598;2022-08-18T15:38:32;96887.91;;;29.43
64904;BMP280;51401;48.882;12.598;2022-08-18T15:40:59;96885.41;;;29.37
64904;BMP280;51401;48.882;12.598;2022-08-18T15:43:26;96884.34;;;29.40
64904;BMP280;51401;48.882;12.598;2022-08-18T15:45:52;96894.53;;;29.42
64904;BMP280;51401;48.882;12.598;2022-08-18T15:48:19;96882.72;;;29.37
64904;BMP280;51401;48.882;12.598;2022-08-18T15:50:46;96881.22;;;29.29
64904;BMP280;51401;48.882;12.598;2022-08-18T15:53:15;96879.72;;;29.41
64904;BMP280;51401;48.882;12.598;2022-08-18T15:55:40;96878.69;;;29.44
64904;BMP280;51401;48.882;12.598;2022-08-18T15:58:07;96875.59;;;29.40
64904;BMP280;51401;48.882;12.598;2022-08-18T16:00:34;96863.69;;;29.41
64904;BMP280;51401;48.882;12.598;2022-08-18T16:03:02;96861.78;;;29.49
64904;BMP280;51401;48.882;12.598;2022-08-18T16:05:36;96859.41;;;29.38
64904;BMP280;51401;48.882;12.598;2022-08-18T16:08:04;96851.81;;;29.29
64904;BMP280;51401;48.882;12.598;2022-08-18T16:10:32;96845.72;;;29.21
64904;BMP280;51401;48.882;12.598;2022-08-18T16:12:58;96841.88;;;29.09
64904;BMP280;51401;48.882;12.598;2022-08-18T16:15:25;96844.63;;;28.97